Pagrindinis puslapis
METAR-TAF:

METAR-TAF

Oro uostai :

Oslas, Norvegija

platuma: 60-12N, ilguma: 011-05E, Aukštis: 208 m

Dabartinis oras

Ataskaita buvo paskelbta 27 minutes, ne 18:50 UTC
Vėjas 11 kt iš Pietų/Pietryčių
Temperatūra 14°C
Drėgmė 94%
Slėgis 997 hPa
Matomumas: 6000 m
Apsiniaukę ne aukštis 300 ft
lietus

METAR: ENGM 231850Z 16011KT 6000 -RA OVC003 14/13 Q0997 TEMPO 4000 -DZ BR

Laikas: 21:17 (19:17 UTC)

Prognozė

Prognozė galioja nuo 23 metu 18 UTC su 24 metu 18 UTC
Vėjas 12 kt iš Pietų
Matomumas 10 km arba daugiau
Išsisklaidę debesys ne aukštis 700 ft
Su prošvaistėmis ne aukštis 1000 ft
Laikinai
nuo 23 metu 18 UTC su 24 metu 10 UTC
Matomumas: 4000 m
Su prošvaistėmis ne aukštis 300 ft
Išsisklaidę debesys ne aukštis 2000 ft, Liūtiniai kamuoliniai debesys.
lietus, rūkana
Tapsmas
nuo 24 metu 09 UTC su 24 metu 11 UTC
Vėjas 15 kt iš Pietų su gūsio iki 25 kt
Su prošvaistėmis ne aukštis 3000 ft

TAF: ENGM 2318/2418 17012KT 9999 SCT007 BKN010 TEMPO 2318/2410 4000 SHRA BR BKN003 SCT020CB BECMG 2409/2411 17015G25KT BKN030

Orai ataskaitas ir orų prognozės (METAR, TAF).

turimą stotys yra geltonos ir raudonos taškus žemėlapyje.

Perkelti pele per norėdami pamatyti stoties vardą.

Tada spustelėkite, norėdami matyti oro stebėjimo ir prognozės.

Norėdami pakeisti žemėlapį: spustelėkite ant žalios mygtukų su juodo kryžiaus žemyn,; žalią mygtuką su brūkšneliu, jei norite nutolinti; arba žalių rodyklių gretimoms žemėlapius.


METAR-TAF: